createdAt,value
2022-12-11T00:02:10.446Z,0.20
2022-12-11T00:04:57.735Z,0.20
2022-12-11T00:07:45.055Z,0.20
2022-12-11T00:10:37.513Z,0.30
2022-12-11T00:13:21.193Z,0.30
2022-12-11T00:16:08.854Z,0.40
2022-12-11T00:18:56.542Z,0.40
2022-12-11T00:21:44.003Z,0.50
2022-12-11T00:24:31.367Z,0.60
2022-12-11T00:27:18.638Z,0.60
2022-12-11T00:30:06.812Z,0.70
2022-12-11T00:32:53.746Z,0.70
2022-12-11T00:35:47.736Z,0.80
2022-12-11T00:38:35.010Z,0.90
2022-12-11T00:41:22.969Z,1.00
2022-12-11T00:44:10.515Z,1.00
2022-12-11T00:46:57.716Z,1.10
2022-12-11T00:49:49.524Z,1.10
2022-12-11T00:52:34.873Z,1.10
2022-12-11T00:55:22.360Z,1.10
2022-12-11T00:58:10.714Z,1.00
2022-12-11T01:01:01.400Z,1.00
2022-12-11T01:03:48.991Z,1.10
2022-12-11T01:06:36.487Z,1.10
2022-12-11T01:09:41.916Z,1.10
2022-12-11T01:12:29.513Z,1.00
2022-12-11T01:15:17.188Z,1.00
2022-12-11T01:18:04.657Z,1.10
2022-12-11T01:20:52.414Z,1.10
2022-12-11T01:23:41.491Z,1.20
2022-12-11T01:26:31.545Z,1.20
2022-12-11T01:29:18.910Z,1.30
2022-12-11T01:32:06.061Z,1.20
2022-12-11T01:34:53.397Z,1.30
2022-12-11T01:37:41.259Z,1.30
2022-12-11T01:40:28.549Z,1.30
2022-12-11T01:43:15.836Z,1.20
2022-12-11T01:46:03.472Z,1.30
2022-12-11T01:48:50.681Z,1.40
2022-12-11T01:51:41.313Z,1.30
2022-12-11T01:54:30.411Z,1.30
2022-12-11T01:57:17.845Z,1.20
2022-12-11T02:00:05.699Z,1.10
2022-12-11T02:02:53.048Z,1.10
2022-12-11T02:05:40.892Z,1.00
2022-12-11T02:08:29.612Z,1.20
2022-12-11T02:11:22.468Z,1.20
2022-12-11T02:14:16.029Z,1.40
2022-12-11T02:17:09.377Z,1.50
2022-12-11T02:20:20.985Z,1.50
2022-12-11T02:23:33.746Z,1.60
2022-12-11T02:26:36.195Z,1.50
2022-12-11T02:29:38.654Z,1.50
2022-12-11T02:32:34.904Z,1.70
2022-12-11T02:35:37.402Z,1.80
2022-12-11T02:38:27.719Z,1.80
2022-12-11T02:41:14.949Z,1.90
2022-12-11T02:44:05.183Z,2.00
2022-12-11T02:46:53.566Z,2.10
2022-12-11T02:49:43.849Z,2.10
2022-12-11T02:52:33.354Z,2.10
2022-12-11T02:55:21.133Z,2.00
2022-12-11T02:58:17.838Z,2.10
2022-12-11T03:01:06.085Z,2.00
2022-12-11T03:03:54.949Z,1.90
2022-12-11T03:06:45.426Z,2.10
2022-12-11T03:09:33.314Z,2.10
2022-12-11T03:12:23.955Z,2.10
2022-12-11T03:15:14.344Z,2.10
2022-12-11T03:18:22.968Z,2.00
2022-12-11T03:21:31.801Z,2.00
2022-12-11T03:24:25.097Z,2.00
2022-12-11T03:27:24.243Z,2.00
2022-12-11T03:30:14.631Z,2.00
2022-12-11T03:33:08.094Z,1.90
2022-12-11T03:35:58.738Z,2.00
2022-12-11T03:38:52.237Z,2.10
2022-12-11T03:41:42.376Z,2.10
2022-12-11T03:44:32.991Z,2.00
2022-12-11T03:47:23.379Z,2.00
2022-12-11T03:50:13.585Z,2.00
2022-12-11T03:53:02.640Z,2.00
2022-12-11T03:55:52.346Z,2.00
2022-12-11T03:58:40.159Z,2.00
2022-12-11T04:01:28.360Z,2.00
2022-12-11T04:04:15.846Z,2.00
2022-12-11T04:07:03.331Z,2.10
2022-12-11T04:09:50.623Z,2.00
2022-12-11T04:12:38.151Z,1.90
2022-12-11T04:15:25.306Z,1.90
2022-12-11T04:18:30.973Z,1.90
2022-12-11T04:21:39.402Z,1.90
2022-12-11T04:24:25.402Z,1.90
2022-12-11T04:27:13.016Z,1.90
2022-12-11T04:30:00.510Z,1.90
2022-12-11T04:32:48.914Z,2.00
2022-12-11T04:35:37.465Z,2.00
2022-12-11T04:38:25.507Z,2.10
2022-12-11T04:41:14.654Z,2.10
2022-12-11T04:44:02.490Z,2.10
2022-12-11T04:46:51.646Z,2.10
2022-12-11T04:49:38.940Z,2.00
2022-12-11T04:52:26.342Z,2.00
2022-12-11T04:55:14.401Z,2.00
2022-12-11T04:58:01.771Z,2.10
2022-12-11T05:00:49.108Z,2.10
2022-12-11T05:03:36.886Z,2.10
2022-12-11T05:06:24.184Z,2.20
2022-12-11T05:09:15.376Z,2.30
2022-12-11T05:12:02.817Z,2.30
2022-12-11T05:14:54.585Z,2.20
2022-12-11T05:17:42.031Z,2.20
2022-12-11T05:20:29.424Z,2.20
2022-12-11T05:23:16.931Z,2.20
2022-12-11T05:26:07.336Z,2.20
2022-12-11T05:28:55.837Z,2.10
2022-12-11T05:31:42.854Z,2.00
2022-12-11T05:34:29.849Z,1.80
2022-12-11T05:37:17.452Z,1.80
2022-12-11T05:40:06.407Z,1.80
2022-12-11T05:42:53.650Z,1.90
2022-12-11T05:45:41.154Z,1.90
2022-12-11T05:48:28.687Z,2.00
2022-12-11T05:51:17.392Z,2.00
2022-12-11T05:54:05.198Z,2.00
2022-12-11T05:56:55.759Z,2.10
2022-12-11T05:59:43.266Z,2.10
2022-12-11T06:02:30.974Z,2.00
2022-12-11T06:05:18.443Z,1.90
2022-12-11T06:08:06.089Z,1.90
2022-12-11T06:10:54.614Z,1.90
2022-12-11T06:13:42.086Z,1.90
2022-12-11T06:16:29.547Z,2.00
2022-12-11T06:19:18.600Z,2.00
2022-12-11T06:22:06.361Z,2.00
2022-12-11T06:24:53.819Z,2.00
2022-12-11T06:27:41.515Z,2.00
2022-12-11T06:30:38.499Z,2.00
2022-12-11T06:33:17.410Z,2.00
2022-12-11T06:36:07.594Z,2.00
2022-12-11T06:38:56.269Z,2.10
2022-12-11T06:41:43.715Z,2.10
2022-12-11T06:44:30.981Z,2.20
2022-12-11T06:47:18.338Z,2.20
2022-12-11T06:50:05.680Z,2.20
2022-12-11T06:52:52.701Z,2.20
2022-12-11T06:55:41.647Z,2.20
2022-12-11T06:58:28.913Z,2.20
2022-12-11T07:01:22.867Z,2.20
2022-12-11T07:04:10.639Z,2.20
2022-12-11T07:06:59.905Z,2.10
2022-12-11T07:09:47.171Z,2.10
2022-12-11T07:12:34.815Z,2.10
2022-12-11T07:15:22.149Z,2.10
2022-12-11T07:18:10.654Z,2.20
2022-12-11T07:21:03.278Z,2.30
2022-12-11T07:23:51.056Z,2.30
2022-12-11T07:26:38.356Z,2.40
2022-12-11T07:29:25.830Z,2.40
2022-12-11T07:32:16.040Z,2.30
2022-12-11T07:35:03.500Z,2.40
2022-12-11T07:37:51.012Z,2.40
2022-12-11T07:40:38.091Z,2.40
2022-12-11T07:43:25.836Z,2.30
2022-12-11T07:46:16.269Z,2.40
2022-12-11T07:49:05.252Z,2.40
2022-12-11T07:51:52.371Z,2.50
2022-12-11T07:54:39.676Z,2.50
2022-12-11T07:57:44.358Z,2.50
2022-12-11T08:00:31.732Z,2.50
2022-12-11T08:03:19.193Z,2.60
2022-12-11T08:06:06.818Z,2.70
2022-12-11T08:08:55.502Z,2.70
2022-12-11T08:11:42.877Z,2.60
2022-12-11T08:14:30.019Z,2.60
2022-12-11T08:17:17.595Z,2.60
2022-12-11T08:20:05.360Z,2.60
2022-12-11T08:22:57.525Z,2.70
2022-12-11T08:25:41.358Z,2.70
2022-12-11T08:28:31.296Z,2.70
2022-12-11T08:31:19.589Z,2.80
2022-12-11T08:34:07.127Z,2.80
2022-12-11T08:36:54.491Z,2.90
2022-12-11T08:39:43.271Z,2.90
2022-12-11T08:42:30.677Z,3.00
2022-12-11T08:45:18.150Z,3.10
2022-12-11T08:48:05.838Z,3.10
2022-12-11T08:50:53.054Z,3.00
2022-12-11T08:53:40.484Z,3.00
2022-12-11T08:56:31.433Z,3.00
2022-12-11T08:59:18.601Z,2.90
2022-12-11T09:02:06.078Z,2.80
2022-12-11T09:04:53.218Z,2.70
2022-12-11T09:07:40.848Z,2.70
2022-12-11T09:10:27.998Z,2.60
2022-12-11T09:13:15.447Z,2.60
2022-12-11T09:16:05.456Z,2.60
2022-12-11T09:18:55.296Z,2.60
2022-12-11T09:21:43.705Z,2.60
2022-12-11T09:24:30.961Z,2.60
2022-12-11T09:27:20.093Z,2.60
2022-12-11T09:30:08.565Z,2.60
2022-12-11T09:32:56.843Z,2.60
2022-12-11T09:35:44.314Z,2.60
2022-12-11T09:38:31.563Z,2.60
2022-12-11T09:41:24.963Z,2.70
2022-12-11T09:44:26.885Z,2.90
2022-12-11T09:47:20.347Z,3.00
2022-12-11T09:50:13.764Z,3.20
2022-12-11T09:53:10.300Z,3.40
2022-12-11T09:56:16.940Z,3.50
2022-12-11T09:59:10.099Z,3.50
2022-12-11T10:02:34.044Z,3.50
2022-12-11T10:05:30.410Z,3.40
2022-12-11T10:08:27.895Z,3.30
2022-12-11T10:11:56.149Z,3.40
2022-12-11T10:15:03.244Z,3.40
2022-12-11T10:18:04.859Z,3.50
2022-12-11T10:20:52.717Z,3.40
2022-12-11T10:23:45.854Z,3.40
2022-12-11T10:26:33.289Z,3.50
2022-12-11T10:29:21.517Z,3.50
2022-12-11T10:32:11.864Z,3.60
2022-12-11T10:35:02.667Z,3.60
2022-12-11T10:37:50.363Z,3.50
2022-12-11T10:40:40.622Z,3.60
2022-12-11T10:43:43.225Z,3.60
2022-12-11T10:46:33.175Z,3.50
2022-12-11T10:49:26.575Z,3.50
2022-12-11T10:52:25.585Z,3.40
2022-12-11T10:55:22.225Z,3.20
2022-12-11T10:58:22.150Z,3.20
2022-12-11T11:01:17.849Z,2.70
2022-12-11T11:04:23.824Z,2.40
2022-12-11T11:07:23.820Z,2.40
2022-12-11T11:10:14.391Z,2.50
2022-12-11T11:13:03.274Z,2.60
2022-12-11T11:15:52.372Z,2.80
2022-12-11T11:18:41.990Z,2.80
2022-12-11T11:21:30.186Z,2.90
2022-12-11T11:24:30.242Z,2.90
2022-12-11T11:27:38.442Z,3.10
2022-12-11T11:30:34.583Z,3.10
2022-12-11T11:33:24.518Z,3.10
2022-12-11T11:36:21.664Z,3.00
2022-12-11T11:39:15.207Z,2.80
2022-12-11T11:42:25.131Z,2.70
2022-12-11T11:45:16.741Z,2.70
2022-12-11T11:48:25.133Z,2.50
2022-12-11T11:51:50.297Z,2.30
2022-12-11T11:54:47.228Z,2.30
2022-12-11T11:57:37.744Z,2.50
2022-12-11T12:00:34.309Z,2.60
2022-12-11T12:03:25.332Z,2.60
2022-12-11T12:06:21.040Z,2.60
2022-12-11T12:09:38.124Z,2.40
2022-12-11T12:12:45.147Z,2.40
2022-12-11T12:15:42.504Z,2.30
2022-12-11T12:18:33.620Z,2.50
2022-12-11T12:21:38.910Z,2.70
2022-12-11T12:24:47.833Z,2.90
2022-12-11T12:28:02.548Z,3.00
2022-12-11T12:31:14.194Z,2.80
2022-12-11T12:34:38.100Z,2.80
2022-12-11T12:37:41.964Z,2.70
2022-12-11T12:40:41.019Z,2.90
2022-12-11T12:43:43.485Z,3.00
2022-12-11T12:46:39.672Z,3.10
2022-12-11T12:49:35.765Z,3.20
2022-12-11T12:52:37.682Z,3.40
2022-12-11T12:55:28.790Z,3.40
2022-12-11T13:01:30.986Z,3.30
2022-12-11T13:04:55.030Z,3.00
2022-12-11T13:07:29.974Z,2.90
2022-12-11T13:10:35.127Z,3.00
2022-12-11T13:13:42.850Z,3.00
2022-12-11T13:16:38.683Z,3.00
2022-12-11T13:19:31.679Z,2.90
2022-12-11T13:22:26.762Z,3.10
2022-12-11T13:25:26.457Z,3.10
2022-12-11T13:28:36.667Z,3.10
2022-12-11T13:31:29.372Z,3.10
2022-12-11T13:34:25.634Z,2.80
2022-12-11T13:37:31.976Z,2.80
2022-12-11T13:40:24.121Z,3.00
2022-12-11T13:43:17.594Z,3.10
2022-12-11T13:46:08.309Z,3.20
2022-12-11T13:49:01.783Z,3.20
2022-12-11T13:51:55.579Z,3.30
2022-12-11T13:54:45.853Z,3.40
2022-12-11T13:57:33.303Z,3.20
2022-12-11T14:00:24.286Z,3.20
2022-12-11T14:03:12.394Z,3.10
2022-12-11T14:06:02.134Z,2.80
2022-12-11T14:08:54.828Z,2.90
2022-12-11T14:11:43.606Z,3.10
2022-12-11T14:14:37.113Z,3.10
2022-12-11T14:17:33.337Z,3.10
2022-12-11T14:20:30.054Z,3.20
2022-12-11T14:23:23.294Z,3.20
2022-12-11T14:26:25.503Z,3.20
2022-12-11T14:29:15.729Z,3.20
2022-12-11T14:32:10.898Z,3.20
2022-12-11T14:34:59.368Z,3.30
2022-12-11T14:37:46.805Z,3.40
2022-12-11T14:40:54.800Z,3.40
2022-12-11T14:43:48.027Z,3.40
2022-12-11T14:46:41.504Z,3.40
2022-12-11T14:49:37.473Z,3.40
2022-12-11T14:52:28.036Z,3.40
2022-12-11T14:55:24.237Z,3.40
2022-12-11T14:58:15.835Z,3.40
2022-12-11T15:01:06.330Z,3.30
2022-12-11T15:04:06.151Z,3.20
2022-12-11T15:06:53.671Z,3.30
2022-12-11T15:09:42.456Z,3.20
2022-12-11T15:12:30.295Z,3.10
2022-12-11T15:15:18.886Z,3.20
2022-12-11T15:18:09.530Z,3.20
2022-12-11T15:21:02.986Z,3.30
2022-12-11T15:23:56.690Z,3.30
2022-12-11T15:26:48.935Z,3.30
2022-12-11T15:29:38.700Z,3.30
2022-12-11T15:32:26.357Z,3.30
2022-12-11T15:35:25.611Z,3.20
2022-12-11T15:38:27.679Z,3.30
2022-12-11T15:41:17.768Z,3.30
2022-12-11T15:44:05.667Z,3.20
2022-12-11T15:46:53.312Z,3.30
2022-12-11T15:49:40.214Z,3.30
2022-12-11T15:52:27.565Z,3.30
2022-12-11T15:55:15.772Z,3.20
2022-12-11T15:58:06.546Z,3.30
2022-12-11T16:00:54.782Z,3.30
2022-12-11T16:03:42.228Z,3.40
2022-12-11T16:06:29.666Z,3.40
2022-12-11T16:09:17.231Z,3.50
2022-12-11T16:12:04.763Z,3.50
2022-12-11T16:14:51.921Z,3.30
2022-12-11T16:17:40.274Z,3.30
2022-12-11T16:20:27.303Z,3.30
2022-12-11T16:23:17.200Z,3.30
2022-12-11T16:26:09.596Z,3.30
2022-12-11T16:28:56.936Z,3.30
2022-12-11T16:31:44.450Z,3.40
2022-12-11T16:34:31.681Z,3.30
2022-12-11T16:37:19.627Z,3.40
2022-12-11T16:40:08.123Z,3.30
2022-12-11T16:42:55.517Z,3.40
2022-12-11T16:45:44.346Z,3.40
2022-12-11T16:48:31.993Z,3.40
2022-12-11T16:51:19.567Z,3.30
2022-12-11T16:54:06.886Z,3.30
2022-12-11T16:56:54.019Z,3.30
2022-12-11T16:59:41.209Z,3.40
2022-12-11T17:02:28.853Z,3.30
2022-12-11T17:05:16.120Z,3.40
2022-12-11T17:08:03.840Z,3.50
2022-12-11T17:10:51.666Z,3.40
2022-12-11T17:13:39.263Z,3.40
2022-12-11T17:16:30.430Z,3.40
2022-12-11T17:19:17.885Z,3.40
2022-12-11T17:22:05.428Z,3.40
2022-12-11T17:24:52.928Z,3.40
2022-12-11T17:27:40.324Z,3.40
2022-12-11T17:30:27.833Z,3.30
2022-12-11T17:33:15.388Z,3.30
2022-12-11T17:36:04.589Z,3.30
2022-12-11T17:38:52.108Z,3.30
2022-12-11T17:41:39.692Z,3.30
2022-12-11T17:44:28.672Z,3.30
2022-12-11T17:47:15.770Z,3.40
2022-12-11T17:50:03.839Z,3.40
2022-12-11T17:52:51.667Z,3.30
2022-12-11T17:55:41.852Z,3.30
2022-12-11T17:58:29.826Z,3.30
2022-12-11T18:01:17.327Z,3.30
2022-12-11T18:04:04.717Z,3.40
2022-12-11T18:06:52.073Z,3.40
2022-12-11T18:09:41.621Z,3.40
2022-12-11T18:12:30.584Z,3.50
2022-12-11T18:15:19.495Z,3.40
2022-12-11T18:18:07.454Z,3.40
2022-12-11T18:20:54.785Z,3.40
2022-12-11T18:23:42.291Z,3.40
2022-12-11T18:26:30.166Z,3.40
2022-12-11T18:29:17.746Z,3.40
2022-12-11T18:32:05.207Z,3.40
2022-12-11T18:34:52.600Z,3.50
2022-12-11T18:37:41.047Z,3.50
2022-12-11T18:40:28.899Z,3.60
2022-12-11T18:43:16.239Z,3.60
2022-12-11T18:46:08.827Z,3.60
2022-12-11T18:48:57.889Z,3.50
2022-12-11T18:51:45.200Z,3.50
2022-12-11T18:54:32.313Z,3.40
2022-12-11T18:57:19.660Z,3.40
2022-12-11T19:00:07.884Z,3.40
2022-12-11T19:02:55.359Z,3.40
2022-12-11T19:05:43.809Z,3.40
2022-12-11T19:08:31.053Z,3.30
2022-12-11T19:11:20.878Z,3.30
2022-12-11T19:14:08.988Z,3.20
2022-12-11T19:16:56.361Z,3.10
2022-12-11T19:19:45.843Z,3.00
2022-12-11T19:22:33.298Z,3.00
2022-12-11T19:25:20.558Z,3.00
2022-12-11T19:28:07.986Z,3.00
2022-12-11T19:30:55.343Z,3.10
2022-12-11T19:33:44.273Z,3.10
2022-12-11T19:36:33.581Z,3.10
2022-12-11T19:39:21.376Z,3.20
2022-12-11T19:42:08.885Z,3.10
2022-12-11T19:44:58.208Z,3.10
2022-12-11T19:47:46.157Z,3.20
2022-12-11T19:50:34.881Z,3.10
2022-12-11T19:53:22.378Z,3.00
2022-12-11T19:56:10.956Z,3.00
2022-12-11T19:59:00.526Z,3.00
2022-12-11T20:01:50.852Z,3.00
2022-12-11T20:04:38.078Z,3.10
2022-12-11T20:07:30.516Z,3.20
2022-12-11T20:10:15.661Z,3.20
2022-12-11T20:13:03.595Z,3.20
2022-12-11T20:15:51.605Z,3.30
2022-12-11T20:18:39.483Z,3.40
2022-12-11T20:21:27.345Z,3.40
2022-12-11T20:24:15.016Z,3.40
2022-12-11T20:27:02.523Z,3.40
2022-12-11T20:29:49.789Z,3.40
2022-12-11T20:32:37.339Z,3.40
2022-12-11T20:35:26.461Z,3.40
2022-12-11T20:38:13.939Z,3.40
2022-12-11T20:41:01.147Z,3.30
2022-12-11T20:43:53.470Z,3.30
2022-12-11T20:46:40.763Z,3.20
2022-12-11T20:49:28.010Z,3.10
2022-12-11T20:52:15.730Z,3.00
2022-12-11T20:55:02.953Z,3.00
2022-12-11T20:57:50.287Z,3.00
2022-12-11T21:00:38.904Z,2.90
2022-12-11T21:03:25.943Z,2.80
2022-12-11T21:06:26.739Z,2.80
2022-12-11T21:09:19.853Z,2.70
2022-12-11T21:12:08.177Z,2.80
2022-12-11T21:14:55.343Z,2.90
2022-12-11T21:17:42.842Z,3.00
2022-12-11T21:20:30.303Z,3.10
2022-12-11T21:23:17.747Z,3.10
2022-12-11T21:26:05.473Z,3.20
2022-12-11T21:28:53.498Z,3.10
2022-12-11T21:31:41.066Z,3.10
2022-12-11T21:34:28.437Z,3.00
2022-12-11T21:37:15.910Z,3.10
2022-12-11T21:40:03.575Z,3.00
2022-12-11T21:42:51.004Z,2.90
2022-12-11T21:46:00.463Z,2.80
2022-12-11T21:48:27.272Z,2.70
2022-12-11T21:51:20.805Z,2.60
2022-12-11T21:54:10.801Z,2.60
2022-12-11T21:56:58.228Z,2.50
2022-12-11T21:59:45.427Z,2.40
2022-12-11T22:02:37.457Z,2.40
2022-12-11T22:05:21.537Z,2.30
2022-12-11T22:08:08.867Z,2.20
2022-12-11T22:10:57.611Z,2.20
2022-12-11T22:13:44.872Z,2.30
2022-12-11T22:16:33.131Z,2.30
2022-12-11T22:19:20.391Z,2.30
2022-12-11T22:22:07.392Z,2.30
2022-12-11T22:24:54.569Z,2.30
2022-12-11T22:27:41.962Z,2.30
2022-12-11T22:30:29.657Z,2.30
2022-12-11T22:33:17.122Z,2.40
2022-12-11T22:36:04.413Z,2.60
2022-12-11T22:38:52.190Z,2.60
2022-12-11T22:41:41.337Z,2.60
2022-12-11T22:44:28.585Z,2.60
2022-12-11T22:47:15.955Z,2.50
2022-12-11T22:50:03.554Z,2.60
2022-12-11T22:52:50.683Z,2.60
2022-12-11T22:55:40.221Z,2.70
2022-12-11T22:58:27.536Z,2.70
2022-12-11T23:01:18.137Z,2.60
2022-12-11T23:04:05.908Z,2.50
2022-12-11T23:06:53.360Z,2.30
2022-12-11T23:09:40.628Z,2.40
2022-12-11T23:12:28.292Z,2.40
2022-12-11T23:15:15.807Z,2.40
2022-12-11T23:18:03.577Z,2.50
2022-12-11T23:20:51.163Z,2.60
2022-12-11T23:23:39.111Z,2.60
2022-12-11T23:26:28.761Z,2.60
2022-12-11T23:29:15.866Z,2.50
2022-12-11T23:32:03.828Z,2.50
2022-12-11T23:34:51.782Z,2.50
2022-12-11T23:37:38.943Z,2.40
2022-12-11T23:40:26.212Z,2.50
2022-12-11T23:43:13.666Z,2.40
2022-12-11T23:46:00.889Z,2.50
2022-12-11T23:48:48.366Z,2.60
2022-12-11T23:51:35.385Z,2.50
2022-12-11T23:54:22.961Z,2.40
2022-12-11T23:57:10.101Z,2.40
2022-12-11T23:59:57.373Z,2.40
